Diego Pacheco

Olheiro - Flamengo
9 Dez 2027
Quinta-feira
Processo

Personalidade

Adaptabilidade (17) Ambição (6) Controvérsia (2) Lealdade (1) Pressão (9) Profissionalismo (3) Espírito Esportivo (3) Temperamento (4)

Perfil

Estilo de Treinamento Democrático
Licença Continental C
Determinação 15
Gestão de Pessoas 7
Motivação 16
Disciplina 7
Satisfação no Trabalho
100%
Fadiga
0%
Função Olheiro
Salário 50.6K p/s
Contrato 14.03.2028

Desempenho

Comportamento Bom
Eficácia do Treinamento
63%
Desenvolvimento do Jogador
70%
Prevenção de Lesões
30%
Implementação Tática
55%

Eventos Recentes

Participou de uma reunião de recrutamento agora
Participou de uma reunião de recrutamento 7d atrás
Recomendou um alvo de transferência 7d atrás
Participou de uma reunião de recrutamento 14d atrás
Recomendou um alvo de transferência 14d atrás
Participou de uma reunião de recrutamento 21d atrás
Recomendou um alvo de transferência 21d atrás
Recomendou um alvo de transferência 28d atrás

Monitorando agora

116
Jogador Clube Status Habilidade Confiança Observado Última observação Último voto
Memphis Depay Grêmio Relatório pronto 146 / 152 79% 1 03.12.2027 -
Alejo Veliz Bahia Ativo 137 / 144 79% 1 01.12.2027 Aprovar
Alexsander Atlético Mineiro Ativo 132 / 122 76% 1 01.06.2027 Aprovar
Sven Botman Newcastle United Ativo 168 / 170 40% 1 30.05.2027 -
Matthijs de Ligt Manchester United Ativo 158 / 172 40% 1 30.05.2027 -
Ethan Galbraith Swansea City Ativo 142 / 141 40% 1 30.05.2027 -
Will Lankshear Middlesbrough Ativo 130 / 113 40% 4 28.05.2027 -
Bryan Mbeumo Manchester United Ativo 159 / 151 40% 1 28.05.2027 -
Richard Koné Queens Park Rangers Ativo 128 / 125 40% 1 28.05.2027 -
Tommy Conway Middlesbrough Ativo 124 / 117 40% 1 27.05.2027 -
Lee Bonis Chesterfield Ativo 98 / 110 40% 1 27.05.2027 -
Assane Diao Lazio Ativo 147 / 142 40% 1 27.05.2027 -
Conor Gallagher Tottenham Ativo 157 / 137 40% 1 24.05.2027 -
Tariq Lamptey Queens Park Rangers Ativo 129 / 126 40% 1 24.05.2027 -
Curtis Jones Inter Ativo 162 / 164 40% 1 24.05.2027 -
Georginio Rutter Brighton Ativo 140 / 136 40% 2 23.05.2027 -
Bradley Barcola Liverpool Ativo 159 / 160 40% 1 23.05.2027 -
Kai Havertz Arsenal Ativo 169 / 163 40% 1 23.05.2027 -
Dom Ballard Leyton Orient Ativo 125 / 131 40% 1 21.05.2027 -
Jérémy Doku Manchester City Ativo 160 / 179 40% 1 21.05.2027 -
Mees Rijks Bristol Rovers Ativo 119 / 110 40% 1 21.05.2027 -
Giacomo Raspadori Atalanta Ativo 153 / 135 40% 1 15.05.2027 -
Alexander Isak Liverpool Ativo 169 / 169 40% 1 15.05.2027 -
Morgan Whittaker Middlesbrough Ativo 134 / 144 40% 3 13.05.2027 -
Gabriel Martinelli Brighton Ativo 162 / 154 40% 2 13.05.2027 -
Thiago Brentford Ativo 155 / 143 40% 2 12.05.2027 -
Iliman N'Diaye Everton Ativo 164 / 162 40% 1 12.05.2027 -
Róbert Boženík Newcastle United Ativo 125 / 130 40% 1 11.05.2027 -
Tom Cannon Sheffield United Ativo 137 / 119 40% 2 10.05.2027 -
Ilyas Ansah Hull City Ativo 135 / 123 40% 1 10.05.2027 -
Gonçalo Ramos AC Milan Ativo 148 / 144 40% 1 10.05.2027 -
Williams Manyama SuperSport United Ativo 119 / 127 40% 1 10.05.2027 -
William Saliba Arsenal Ativo 182 / 181 40% 1 10.05.2027 -
Milan van Ewijk Mansfield Town Ativo 129 / 117 40% 1 08.05.2027 -
Sandro Tonali Tottenham Ativo 179 / 157 40% 1 08.05.2027 -
Reece James Chelsea Ativo 181 / 170 40% 1 08.05.2027 -
Micky van de Ven Tottenham Ativo 163 / 156 40% 1 03.05.2027 -
Jeremie Frimpong Liverpool Ativo 166 / 164 40% 1 03.05.2027 -
Boubacar Kamara Aston Villa Ativo 172 / 156 40% 1 03.05.2027 -
Andrea Pinamonti Lazio Ativo 135 / 127 40% 3 02.05.2027 -
Mohammed Kudus Tottenham Ativo 166 / 159 40% 1 02.05.2027 -
Niall Ennis Blackpool Ativo 109 / 109 40% 1 02.05.2027 -
Vinícius Júnior Arsenal Ativo 186 / 182 40% 1 01.05.2027 -
Romelu Witsel Liverpool Ativo 165 / 179 40% 1 01.05.2027 -
Cody Gakpo Liverpool Ativo 162 / 165 40% 1 28.04.2027 -
Dango Ouattara Brentford Ativo 146 / 146 40% 2 27.04.2027 -
Rayan Cherki Manchester City Ativo 174 / 156 40% 1 27.04.2027 -
Morgan Rogers Chelsea Ativo 165 / 151 40% 1 26.04.2027 -
Lucas Duarte Felgueiras Ativo 112 / 98 40% 2 24.04.2027 -
Yousef Salech Cardiff City Ativo 130 / 128 40% 2 24.04.2027 -
Ousmane Diomande Nottingham Forest Ativo 151 / 164 40% 1 22.04.2027 -
Paulo Moreira Farense Ativo 124 / 141 40% 1 22.04.2027 -
Wesley Fofana Chelsea Ativo 156 / 173 40% 1 21.04.2027 -
Harry Clarke Preston Ativo 137 / 114 40% 1 21.04.2027 -
Mats Wieffer Brighton Ativo 157 / 147 40% 1 21.04.2027 -
Rico Lewis Manchester City Ativo 145 / 154 40% 1 20.04.2027 -
David Sousa Casa Pia Ativo 120 / 121 40% 1 20.04.2027 -
Víctor Gómez Braga Ativo 143 / 137 40% 1 20.04.2027 -
Sergi Altimira Sporting CP Ativo 134 / 134 40% 2 17.04.2027 -
Rodrigo Pinheiro Famalicao Ativo 135 / 124 40% 2 16.04.2027 -
Weverson Gil Vicente Ativo 123 / 108 40% 1 16.04.2027 -
Alfonso Trezza Arouca Ativo 126 / 109 40% 2 15.04.2027 -
Roberto Fernández Braga Ativo 148 / 138 40% 2 14.04.2027 -
Aune Heggebø West Bromwich Albion Ativo 137 / 135 40% 2 14.04.2027 -
Tyrese Campbell Sheffield United Ativo 133 / 112 40% 1 14.04.2027 -
Florentino Luís Ipswich Town Ativo 144 / 130 40% 1 13.04.2027 -
Nuno Tavares Lazio Ativo 142 / 154 40% 1 13.04.2027 -
Soungoutou Magassa West Ham United Ativo 138 / 137 40% 1 10.04.2027 -
Facundo Cáseres Gil Vicente Ativo 125 / 113 40% 1 10.04.2027 -
Jordan Holsgrove Estoril Praia Ativo 137 / 138 40% 1 10.04.2027 -
Bright Arrey-Mbi Braga Ativo 128 / 136 40% 1 08.04.2027 -
Alberto Costa Porto Ativo 148 / 151 40% 1 08.04.2027 -
Quinten Timber Crystal Palace Ativo 154 / 153 40% 1 08.04.2027 -
Lohann Doucet Vitoria Guimaraes Ativo 124 / 118 40% 1 07.04.2027 -
Miguel Falé Pacos de Ferreira Ativo 112 / 120 40% 1 05.04.2027 -
Lorenzo Colombo Genoa Ativo 133 / 135 40% 1 02.04.2027 -
Henrique Araújo Casa Pia Ativo 116 / 119 40% 2 01.04.2027 -
Mohamed-Ali Cho Hull City Ativo 136 / 150 40% 2 01.04.2027 -
Martín Tejón Maritimo Ativo 122 / 132 40% 3 30.03.2027 -
Razvan Balasa Crvena Zvezda Ativo 159 / 158 40% 2 30.03.2027 -
Pau Víctor AVS Ativo 145 / 134 40% 1 27.03.2027 -
Evidence Makgopa Orlando Pirates Ativo 107 / 121 40% 1 27.03.2027 -
Kirill Klimov Feirense Ativo 95 / 96 40% 1 25.03.2027 -
Luis Vázquez Birmingham Ativo 128 / 136 40% 1 25.03.2027 -
José Manuel López Palmeiras Ativo 130 / 128 40% 2 18.03.2027 -
Figueiredo Alverca Ativo 136 / 122 40% 1 18.03.2027 -
Mandla Mahlangu Ajax Cape Town Ativo 115 / 123 40% 1 05.03.2027 -
Barış Alper Yılmaz Galatasaray Ativo 143 / 161 40% 1 04.03.2027 -
Jalen Blesa Rio Ave Ativo 121 / 114 40% 1 04.03.2027 -
Shahriar Dejagah Tractor Ativo 136 / 125 40% 2 03.03.2027 -
Adnan Courtois KV Oostende Ativo 148 / 132 40% 1 03.03.2027 -
Toni Fruk KV Mechelen Ativo 129 / 145 40% 1 03.03.2027 -
Dawda Camara Alverca Ativo 115 / 135 40% 1 22.02.2027 -
Roméo Beney Famalicao Ativo 103 / 101 40% 1 22.02.2027 -
Lassina Traoré Shakhtar Ativo 117 / 127 40% 1 15.02.2027 -
Fally Mayulu Arouca Ativo 111 / 111 40% 1 15.02.2027 -
Fotis Ioannidis Rio Ave Ativo 131 / 135 40% 1 13.02.2027 -
Robert Mizo Ashanti Gold Ativo 104 / 116 40% 1 13.02.2027 -
Gabriel Veron Porto Ativo 127 / 130 40% 1 09.02.2027 -
Bamba Dieng Crvena Zvezda Ativo 133 / 122 40% 1 01.02.2027 -
Dean Henderson Crystal Palace Ativo 144 / 155 40% 4 22.11.2026 -
Anatolii Trubin Juventus Ativo 163 / 153 40% 5 22.11.2026 -
Robin Roefs Sunderland Ativo 135 / 128 40% 3 14.11.2026 -
Caoimhin Kelleher Brentford Ativo 156 / 137 40% 1 11.11.2026 -
Keisuke Osako Sanfrecce Hiroshima Ativo 127 / 144 40% 3 10.11.2026 -
Matvey Safonov Paris Saint-Germain Ativo 164 / 155 40% 1 12.10.2026 -
Kostantis Tzolakis Hull City Ativo 137 / 126 40% 1 06.10.2026 -
James Trafford Leeds United Ativo 132 / 136 40% 3 24.09.2026 -
Arijanet Murić Sassuolo Ativo 138 / 126 40% 1 23.09.2026 -
Josep Martínez Inter Ativo 149 / 153 40% 2 16.09.2026 -
Guillaume Restes Toulouse FC Ativo 130 / 149 40% 1 16.09.2026 -
Alexander Nübel Besiktas Ativo 152 / 156 40% 1 15.09.2026 -
Senne Lammens Manchester United Ativo 146 / 141 40% 1 12.09.2026 -
Julen Agirrezabala Racing Santander Ativo 140 / 140 40% 1 04.08.2026 -
Joan García Barcelona Ativo 157 / 164 40% 1 04.08.2026 -
Antonio Sivera Alavés Ativo 150 / 136 40% 1 02.08.2026 -